sensor_id;sensor_type;location;lat;lon;timestamp;P1;durP1;ratioP1;P2;durP2;ratioP2
32026;SDS011;18543;50.848;4.596;2023-02-07T00:00:53;12.52;;;6.35;;
32026;SDS011;18543;50.848;4.596;2023-02-07T00:03:21;11.47;;;6.00;;
32026;SDS011;18543;50.848;4.596;2023-02-07T00:05:50;8.93;;;5.90;;
32026;SDS011;18543;50.848;4.596;2023-02-07T00:08:17;9.45;;;6.53;;
32026;SDS011;18543;50.848;4.596;2023-02-07T00:10:44;7.80;;;5.88;;
32026;SDS011;18543;50.848;4.596;2023-02-07T00:13:13;8.52;;;5.95;;
32026;SDS011;18543;50.848;4.596;2023-02-07T00:15:40;10.07;;;6.35;;
32026;SDS011;18543;50.848;4.596;2023-02-07T00:18:10;10.07;;;6.40;;
32026;SDS011;18543;50.848;4.596;2023-02-07T00:20:37;8.65;;;6.07;;
32026;SDS011;18543;50.848;4.596;2023-02-07T00:23:03;8.90;;;6.10;;
32026;SDS011;18543;50.848;4.596;2023-02-07T00:25:30;9.73;;;5.95;;
32026;SDS011;18543;50.848;4.596;2023-02-07T00:27:57;9.90;;;6.68;;
32026;SDS011;18543;50.848;4.596;2023-02-07T00:30:24;7.88;;;6.10;;
32026;SDS011;18543;50.848;4.596;2023-02-07T00:32:51;9.60;;;6.55;;
32026;SDS011;18543;50.848;4.596;2023-02-07T00:35:18;10.27;;;6.45;;
32026;SDS011;18543;50.848;4.596;2023-02-07T00:37:44;9.15;;;6.00;;
32026;SDS011;18543;50.848;4.596;2023-02-07T00:40:11;8.63;;;5.78;;
32026;SDS011;18543;50.848;4.596;2023-02-07T00:42:38;9.63;;;5.90;;
32026;SDS011;18543;50.848;4.596;2023-02-07T00:45:05;10.60;;;6.30;;
32026;SDS011;18543;50.848;4.596;2023-02-07T00:47:32;9.82;;;6.03;;
32026;SDS011;18543;50.848;4.596;2023-02-07T00:49:59;8.88;;;6.00;;
32026;SDS011;18543;50.848;4.596;2023-02-07T00:52:25;8.25;;;6.07;;
32026;SDS011;18543;50.848;4.596;2023-02-07T00:54:52;10.27;;;5.75;;
32026;SDS011;18543;50.848;4.596;2023-02-07T00:57:19;9.02;;;5.68;;
32026;SDS011;18543;50.848;4.596;2023-02-07T00:59:46;10.70;;;5.50;;
32026;SDS011;18543;50.848;4.596;2023-02-07T01:02:13;8.20;;;5.70;;
32026;SDS011;18543;50.848;4.596;2023-02-07T01:04:40;9.15;;;5.72;;
32026;SDS011;18543;50.848;4.596;2023-02-07T01:07:07;9.85;;;5.70;;
32026;SDS011;18543;50.848;4.596;2023-02-07T01:09:34;6.70;;;5.55;;
32026;SDS011;18543;50.848;4.596;2023-02-07T01:12:01;8.07;;;5.63;;
32026;SDS011;18543;50.848;4.596;2023-02-07T01:14:28;8.77;;;5.85;;
32026;SDS011;18543;50.848;4.596;2023-02-07T01:16:54;7.60;;;5.70;;
32026;SDS011;18543;50.848;4.596;2023-02-07T01:19:21;7.90;;;5.45;;
32026;SDS011;18543;50.848;4.596;2023-02-07T01:21:48;7.25;;;5.70;;
32026;SDS011;18543;50.848;4.596;2023-02-07T01:24:15;7.22;;;5.60;;
32026;SDS011;18543;50.848;4.596;2023-02-07T01:26:44;8.32;;;5.60;;
32026;SDS011;18543;50.848;4.596;2023-02-07T01:29:12;7.95;;;5.53;;
32026;SDS011;18543;50.848;4.596;2023-02-07T01:31:41;8.48;;;5.63;;
32026;SDS011;18543;50.848;4.596;2023-02-07T01:34:11;8.50;;;5.78;;
32026;SDS011;18543;50.848;4.596;2023-02-07T01:36:39;7.45;;;5.63;;
32026;SDS011;18543;50.848;4.596;2023-02-07T01:39:06;7.97;;;5.78;;
32026;SDS011;18543;50.848;4.596;2023-02-07T01:41:33;7.07;;;5.32;;
32026;SDS011;18543;50.848;4.596;2023-02-07T01:46:30;7.35;;;5.57;;
32026;SDS011;18543;50.848;4.596;2023-02-07T01:49:00;8.48;;;5.55;;
32026;SDS011;18543;50.848;4.596;2023-02-07T01:51:31;7.80;;;5.45;;
32026;SDS011;18543;50.848;4.596;2023-02-07T01:54:00;7.75;;;5.45;;
32026;SDS011;18543;50.848;4.596;2023-02-07T01:56:32;8.80;;;5.50;;
32026;SDS011;18543;50.848;4.596;2023-02-07T01:59:00;8.48;;;5.15;;
32026;SDS011;18543;50.848;4.596;2023-02-07T02:01:29;7.70;;;5.35;;
32026;SDS011;18543;50.848;4.596;2023-02-07T02:03:56;7.60;;;5.70;;
32026;SDS011;18543;50.848;4.596;2023-02-07T02:06:25;7.45;;;5.55;;
32026;SDS011;18543;50.848;4.596;2023-02-07T02:08:59;8.18;;;5.55;;
32026;SDS011;18543;50.848;4.596;2023-02-07T02:11:32;7.60;;;5.38;;
32026;SDS011;18543;50.848;4.596;2023-02-07T02:42:54;7.75;;;5.65;;
32026;SDS011;18543;50.848;4.596;2023-02-07T02:45:41;6.63;;;5.18;;
32026;SDS011;18543;50.848;4.596;2023-02-07T02:48:16;6.10;;;4.60;;
32026;SDS011;18543;50.848;4.596;2023-02-07T02:50:44;7.68;;;5.20;;
32026;SDS011;18543;50.848;4.596;2023-02-07T02:53:12;8.55;;;5.40;;
32026;SDS011;18543;50.848;4.596;2023-02-07T02:55:45;7.63;;;4.90;;
32026;SDS011;18543;50.848;4.596;2023-02-07T03:00:57;8.43;;;5.03;;
32026;SDS011;18543;50.848;4.596;2023-02-07T03:06:42;8.30;;;5.00;;
32026;SDS011;18543;50.848;4.596;2023-02-07T03:09:18;6.95;;;5.20;;
32026;SDS011;18543;50.848;4.596;2023-02-07T03:11:50;6.55;;;4.82;;
32026;SDS011;18543;50.848;4.596;2023-02-07T03:14:38;9.02;;;5.38;;
32026;SDS011;18543;50.848;4.596;2023-02-07T03:17:30;7.40;;;4.88;;
32026;SDS011;18543;50.848;4.596;2023-02-07T03:20:10;7.35;;;4.93;;
32026;SDS011;18543;50.848;4.596;2023-02-07T03:22:44;6.40;;;4.63;;
32026;SDS011;18543;50.848;4.596;2023-02-07T03:25:13;6.90;;;4.95;;
32026;SDS011;18543;50.848;4.596;2023-02-07T03:27:42;8.02;;;4.63;;
32026;SDS011;18543;50.848;4.596;2023-02-07T03:30:12;5.88;;;4.80;;
32026;SDS011;18543;50.848;4.596;2023-02-07T03:32:42;6.47;;;5.13;;
32026;SDS011;18543;50.848;4.596;2023-02-07T03:35:19;6.40;;;4.60;;
32026;SDS011;18543;50.848;4.596;2023-02-07T03:37:57;7.22;;;4.88;;
32026;SDS011;18543;50.848;4.596;2023-02-07T03:40:27;7.65;;;4.70;;
32026;SDS011;18543;50.848;4.596;2023-02-07T03:45:30;5.60;;;4.68;;
32026;SDS011;18543;50.848;4.596;2023-02-07T03:47:57;6.28;;;4.80;;
32026;SDS011;18543;50.848;4.596;2023-02-07T03:50:24;7.38;;;5.10;;
32026;SDS011;18543;50.848;4.596;2023-02-07T03:52:54;6.10;;;4.47;;
32026;SDS011;18543;50.848;4.596;2023-02-07T03:55:20;7.63;;;4.78;;
32026;SDS011;18543;50.848;4.596;2023-02-07T03:57:47;6.72;;;4.53;;
32026;SDS011;18543;50.848;4.596;2023-02-07T04:00:14;6.82;;;4.60;;
32026;SDS011;18543;50.848;4.596;2023-02-07T04:02:41;5.47;;;4.50;;
32026;SDS011;18543;50.848;4.596;2023-02-07T04:05:11;5.55;;;4.38;;
32026;SDS011;18543;50.848;4.596;2023-02-07T04:07:37;5.93;;;4.50;;
32026;SDS011;18543;50.848;4.596;2023-02-07T04:10:05;6.40;;;4.03;;
32026;SDS011;18543;50.848;4.596;2023-02-07T04:12:32;5.38;;;4.28;;
32026;SDS011;18543;50.848;4.596;2023-02-07T04:14:59;6.03;;;4.28;;
32026;SDS011;18543;50.848;4.596;2023-02-07T04:19:56;5.85;;;4.32;;
32026;SDS011;18543;50.848;4.596;2023-02-07T04:22:23;5.63;;;4.18;;
32026;SDS011;18543;50.848;4.596;2023-02-07T04:24:50;7.75;;;4.32;;
32026;SDS011;18543;50.848;4.596;2023-02-07T04:27:17;7.35;;;4.57;;
32026;SDS011;18543;50.848;4.596;2023-02-07T04:29:44;7.38;;;4.30;;
32026;SDS011;18543;50.848;4.596;2023-02-07T04:32:11;5.75;;;4.35;;
32026;SDS011;18543;50.848;4.596;2023-02-07T04:34:38;5.93;;;4.00;;
32026;SDS011;18543;50.848;4.596;2023-02-07T04:37:04;6.13;;;3.97;;
32026;SDS011;18543;50.848;4.596;2023-02-07T04:39:31;5.60;;;4.43;;
32026;SDS011;18543;50.848;4.596;2023-02-07T04:42:00;5.25;;;4.13;;
32026;SDS011;18543;50.848;4.596;2023-02-07T04:44:27;6.22;;;4.57;;
32026;SDS011;18543;50.848;4.596;2023-02-07T04:46:54;6.88;;;4.70;;
32026;SDS011;18543;50.848;4.596;2023-02-07T04:49:21;7.20;;;4.28;;
32026;SDS011;18543;50.848;4.596;2023-02-07T04:51:48;7.45;;;4.30;;
32026;SDS011;18543;50.848;4.596;2023-02-07T04:54:15;6.43;;;4.45;;
32026;SDS011;18543;50.848;4.596;2023-02-07T04:56:41;6.05;;;4.32;;
32026;SDS011;18543;50.848;4.596;2023-02-07T04:59:08;5.50;;;4.32;;
32026;SDS011;18543;50.848;4.596;2023-02-07T05:01:35;6.32;;;4.13;;
32026;SDS011;18543;50.848;4.596;2023-02-07T05:04:02;6.85;;;4.10;;
32026;SDS011;18543;50.848;4.596;2023-02-07T05:06:29;7.32;;;4.68;;
32026;SDS011;18543;50.848;4.596;2023-02-07T05:08:55;5.78;;;3.97;;
32026;SDS011;18543;50.848;4.596;2023-02-07T05:11:22;5.15;;;4.15;;
32026;SDS011;18543;50.848;4.596;2023-02-07T05:13:49;5.40;;;4.00;;
32026;SDS011;18543;50.848;4.596;2023-02-07T05:16:16;5.75;;;4.35;;
32026;SDS011;18543;50.848;4.596;2023-02-07T05:18:43;5.50;;;3.90;;
32026;SDS011;18543;50.848;4.596;2023-02-07T05:21:09;5.00;;;3.92;;
32026;SDS011;18543;50.848;4.596;2023-02-07T05:23:36;6.78;;;4.28;;
32026;SDS011;18543;50.848;4.596;2023-02-07T05:26:03;6.35;;;4.15;;
32026;SDS011;18543;50.848;4.596;2023-02-07T05:28:30;5.72;;;4.22;;
32026;SDS011;18543;50.848;4.596;2023-02-07T05:30:57;5.55;;;3.92;;
32026;SDS011;18543;50.848;4.596;2023-02-07T05:33:24;8.13;;;4.30;;
32026;SDS011;18543;50.848;4.596;2023-02-07T05:35:51;7.40;;;4.00;;
32026;SDS011;18543;50.848;4.596;2023-02-07T05:38:18;7.55;;;3.97;;
32026;SDS011;18543;50.848;4.596;2023-02-07T05:40:48;8.45;;;4.00;;
32026;SDS011;18543;50.848;4.596;2023-02-07T05:43:14;6.65;;;4.15;;
32026;SDS011;18543;50.848;4.596;2023-02-07T05:45:41;7.78;;;4.45;;
32026;SDS011;18543;50.848;4.596;2023-02-07T05:48:13;7.82;;;4.40;;
32026;SDS011;18543;50.848;4.596;2023-02-07T05:50:40;7.35;;;4.35;;
32026;SDS011;18543;50.848;4.596;2023-02-07T05:53:07;11.38;;;4.63;;
32026;SDS011;18543;50.848;4.596;2023-02-07T05:55:34;7.00;;;4.07;;
32026;SDS011;18543;50.848;4.596;2023-02-07T05:58:02;8.50;;;4.50;;
32026;SDS011;18543;50.848;4.596;2023-02-07T06:00:29;8.13;;;4.70;;
32026;SDS011;18543;50.848;4.596;2023-02-07T06:02:56;8.40;;;4.90;;
32026;SDS011;18543;50.848;4.596;2023-02-07T06:05:22;7.07;;;4.03;;
32026;SDS011;18543;50.848;4.596;2023-02-07T06:07:50;7.30;;;4.40;;
32026;SDS011;18543;50.848;4.596;2023-02-07T06:10:17;7.43;;;4.10;;
32026;SDS011;18543;50.848;4.596;2023-02-07T06:12:44;7.47;;;4.03;;
32026;SDS011;18543;50.848;4.596;2023-02-07T06:15:11;5.64;;;3.77;;
32026;SDS011;18543;50.848;4.596;2023-02-07T06:17:38;9.23;;;3.97;;
32026;SDS011;18543;50.848;4.596;2023-02-07T06:20:05;8.55;;;4.25;;
32026;SDS011;18543;50.848;4.596;2023-02-07T06:22:35;8.73;;;4.05;;
32026;SDS011;18543;50.848;4.596;2023-02-07T06:25:02;13.00;;;4.18;;
32026;SDS011;18543;50.848;4.596;2023-02-07T06:27:29;6.57;;;4.38;;
32026;SDS011;18543;50.848;4.596;2023-02-07T06:29:56;7.70;;;3.92;;
32026;SDS011;18543;50.848;4.596;2023-02-07T06:32:23;8.95;;;4.10;;
32026;SDS011;18543;50.848;4.596;2023-02-07T06:34:49;7.75;;;3.90;;
32026;SDS011;18543;50.848;4.596;2023-02-07T06:37:18;8.57;;;4.60;;
32026;SDS011;18543;50.848;4.596;2023-02-07T06:39:45;8.95;;;4.80;;
32026;SDS011;18543;50.848;4.596;2023-02-07T06:42:12;9.13;;;5.18;;
32026;SDS011;18543;50.848;4.596;2023-02-07T06:44:39;7.75;;;4.80;;
32026;SDS011;18543;50.848;4.596;2023-02-07T06:47:06;7.13;;;4.45;;
32026;SDS011;18543;50.848;4.596;2023-02-07T06:49:33;7.72;;;4.82;;
32026;SDS011;18543;50.848;4.596;2023-02-07T06:52:00;8.23;;;4.78;;
32026;SDS011;18543;50.848;4.596;2023-02-07T06:54:28;6.82;;;5.00;;
32026;SDS011;18543;50.848;4.596;2023-02-07T06:56:55;10.05;;;5.65;;
32026;SDS011;18543;50.848;4.596;2023-02-07T06:59:22;13.45;;;7.13;;
32026;SDS011;18543;50.848;4.596;2023-02-07T07:01:49;13.32;;;7.75;;
32026;SDS011;18543;50.848;4.596;2023-02-07T07:04:16;16.15;;;8.57;;
32026;SDS011;18543;50.848;4.596;2023-02-07T07:06:43;15.65;;;8.95;;
32026;SDS011;18543;50.848;4.596;2023-02-07T07:09:10;20.67;;;10.27;;
32026;SDS011;18543;50.848;4.596;2023-02-07T07:11:38;17.58;;;9.85;;
32026;SDS011;18543;50.848;4.596;2023-02-07T07:14:08;24.08;;;10.48;;
32026;SDS011;18543;50.848;4.596;2023-02-07T07:16:36;17.30;;;9.95;;
32026;SDS011;18543;50.848;4.596;2023-02-07T07:19:04;24.08;;;11.27;;
32026;SDS011;18543;50.848;4.596;2023-02-07T07:21:30;20.40;;;10.98;;
32026;SDS011;18543;50.848;4.596;2023-02-07T07:23:57;22.00;;;12.05;;
32026;SDS011;18543;50.848;4.596;2023-02-07T07:26:24;21.20;;;11.82;;
32026;SDS011;18543;50.848;4.596;2023-02-07T07:29:04;22.92;;;11.85;;
32026;SDS011;18543;50.848;4.596;2023-02-07T07:31:35;20.85;;;11.65;;
32026;SDS011;18543;50.848;4.596;2023-02-07T07:34:02;18.00;;;10.77;;
32026;SDS011;18543;50.848;4.596;2023-02-07T07:36:30;22.58;;;11.93;;
32026;SDS011;18543;50.848;4.596;2023-02-07T07:38:57;21.65;;;12.25;;
32026;SDS011;18543;50.848;4.596;2023-02-07T07:41:23;19.80;;;11.38;;
32026;SDS011;18543;50.848;4.596;2023-02-07T07:43:50;20.38;;;11.18;;
32026;SDS011;18543;50.848;4.596;2023-02-07T07:46:17;18.83;;;10.45;;
32026;SDS011;18543;50.848;4.596;2023-02-07T07:48:44;19.23;;;10.75;;
32026;SDS011;18543;50.848;4.596;2023-02-07T07:51:11;25.52;;;11.23;;
32026;SDS011;18543;50.848;4.596;2023-02-07T07:53:37;22.25;;;12.20;;
32026;SDS011;18543;50.848;4.596;2023-02-07T07:56:04;20.60;;;10.85;;
32026;SDS011;18543;50.848;4.596;2023-02-07T07:58:31;24.80;;;10.88;;
32026;SDS011;18543;50.848;4.596;2023-02-07T08:00:58;21.20;;;11.00;;
32026;SDS011;18543;50.848;4.596;2023-02-07T08:03:25;20.15;;;11.10;;
32026;SDS011;18543;50.848;4.596;2023-02-07T08:05:52;23.42;;;11.13;;
32026;SDS011;18543;50.848;4.596;2023-02-07T08:08:19;16.05;;;10.40;;
32026;SDS011;18543;50.848;4.596;2023-02-07T08:10:47;20.98;;;10.07;;
32026;SDS011;18543;50.848;4.596;2023-02-07T08:13:14;18.58;;;10.02;;
32026;SDS011;18543;50.848;4.596;2023-02-07T08:18:09;17.08;;;9.90;;
32026;SDS011;18543;50.848;4.596;2023-02-07T08:20:36;17.65;;;9.90;;
32026;SDS011;18543;50.848;4.596;2023-02-07T08:23:03;22.20;;;10.38;;
32026;SDS011;18543;50.848;4.596;2023-02-07T08:25:30;15.90;;;9.77;;
32026;SDS011;18543;50.848;4.596;2023-02-07T08:27:57;18.50;;;9.75;;
32026;SDS011;18543;50.848;4.596;2023-02-07T08:30:24;15.70;;;9.57;;
32026;SDS011;18543;50.848;4.596;2023-02-07T08:32:51;16.65;;;10.55;;
32026;SDS011;18543;50.848;4.596;2023-02-07T08:35:18;18.13;;;9.70;;
32026;SDS011;18543;50.848;4.596;2023-02-07T08:37:44;15.75;;;9.25;;
32026;SDS011;18543;50.848;4.596;2023-02-07T08:40:12;14.95;;;9.25;;
32026;SDS011;18543;50.848;4.596;2023-02-07T08:42:39;18.27;;;9.05;;
32026;SDS011;18543;50.848;4.596;2023-02-07T09:30:42;10.32;;;7.50;;
32026;SDS011;18543;50.848;4.596;2023-02-07T09:33:11;12.63;;;7.47;;
32026;SDS011;18543;50.848;4.596;2023-02-07T09:35:40;12.02;;;7.85;;
32026;SDS011;18543;50.848;4.596;2023-02-07T09:38:11;10.73;;;7.20;;
32026;SDS011;18543;50.848;4.596;2023-02-07T09:40:40;11.10;;;7.22;;
32026;SDS011;18543;50.848;4.596;2023-02-07T09:45:39;9.98;;;7.13;;
32026;SDS011;18543;50.848;4.596;2023-02-07T09:48:16;11.32;;;7.63;;
32026;SDS011;18543;50.848;4.596;2023-02-07T09:50:53;10.52;;;7.43;;
32026;SDS011;18543;50.848;4.596;2023-02-07T09:53:23;13.20;;;7.15;;
32026;SDS011;18543;50.848;4.596;2023-02-07T09:56:00;12.48;;;7.10;;
32026;SDS011;18543;50.848;4.596;2023-02-07T09:58:44;11.98;;;6.63;;
32026;SDS011;18543;50.848;4.596;2023-02-07T10:01:36;9.90;;;6.60;;
32026;SDS011;18543;50.848;4.596;2023-02-07T10:06:47;13.32;;;7.15;;
32026;SDS011;18543;50.848;4.596;2023-02-07T10:09:21;11.20;;;6.85;;
32026;SDS011;18543;50.848;4.596;2023-02-07T10:25:39;8.90;;;6.18;;
32026;SDS011;18543;50.848;4.596;2023-02-07T10:31:23;8.88;;;6.03;;
32026;SDS011;18543;50.848;4.596;2023-02-07T10:33:55;10.02;;;6.28;;
32026;SDS011;18543;50.848;4.596;2023-02-07T10:36:35;8.63;;;5.63;;
32026;SDS011;18543;50.848;4.596;2023-02-07T10:39:08;9.82;;;5.95;;
32026;SDS011;18543;50.848;4.596;2023-02-07T10:41:48;9.40;;;5.80;;
32026;SDS011;18543;50.848;4.596;2023-02-07T10:44:16;8.25;;;5.88;;
32026;SDS011;18543;50.848;4.596;2023-02-07T10:46:45;7.72;;;5.57;;
32026;SDS011;18543;50.848;4.596;2023-02-07T10:49:28;8.77;;;5.50;;
32026;SDS011;18543;50.848;4.596;2023-02-07T10:51:58;8.15;;;5.50;;
32026;SDS011;18543;50.848;4.596;2023-02-07T10:54:28;10.40;;;5.63;;
32026;SDS011;18543;50.848;4.596;2023-02-07T10:57:14;9.45;;;5.22;;
32026;SDS011;18543;50.848;4.596;2023-02-07T10:59:44;8.98;;;5.63;;
32026;SDS011;18543;50.848;4.596;2023-02-07T11:05:04;8.10;;;4.97;;
32026;SDS011;18543;50.848;4.596;2023-02-07T11:07:40;8.02;;;5.30;;
32026;SDS011;18543;50.848;4.596;2023-02-07T11:10:17;9.23;;;5.22;;
32026;SDS011;18543;50.848;4.596;2023-02-07T11:12:49;8.32;;;5.30;;
32026;SDS011;18543;50.848;4.596;2023-02-07T11:15:21;7.30;;;4.97;;
32026;SDS011;18543;50.848;4.596;2023-02-07T11:17:57;9.60;;;5.47;;
32026;SDS011;18543;50.848;4.596;2023-02-07T11:20:35;8.63;;;5.43;;
32026;SDS011;18543;50.848;4.596;2023-02-07T11:23:06;7.85;;;5.63;;
32026;SDS011;18543;50.848;4.596;2023-02-07T11:25:39;7.50;;;4.88;;
32026;SDS011;18543;50.848;4.596;2023-02-07T11:28:22;8.18;;;5.20;;
32026;SDS011;18543;50.848;4.596;2023-02-07T11:30:54;7.60;;;5.07;;
32026;SDS011;18543;50.848;4.596;2023-02-07T11:33:25;7.45;;;4.65;;
32026;SDS011;18543;50.848;4.596;2023-02-07T11:36:05;7.50;;;4.65;;
32026;SDS011;18543;50.848;4.596;2023-02-07T11:38:37;7.50;;;5.00;;
32026;SDS011;18543;50.848;4.596;2023-02-07T11:41:14;7.45;;;5.07;;
32026;SDS011;18543;50.848;4.596;2023-02-07T11:44:03;9.13;;;4.95;;
32026;SDS011;18543;50.848;4.596;2023-02-07T11:46:41;6.90;;;4.50;;
32026;SDS011;18543;50.848;4.596;2023-02-07T11:49:19;7.45;;;4.82;;
32026;SDS011;18543;50.848;4.596;2023-02-07T11:51:55;7.85;;;5.00;;
32026;SDS011;18543;50.848;4.596;2023-02-07T11:54:25;7.25;;;4.75;;
32026;SDS011;18543;50.848;4.596;2023-02-07T11:56:58;7.60;;;4.53;;
32026;SDS011;18543;50.848;4.596;2023-02-07T11:59:28;7.35;;;4.85;;
32026;SDS011;18543;50.848;4.596;2023-02-07T12:01:56;7.20;;;4.70;;
32026;SDS011;18543;50.848;4.596;2023-02-07T12:04:27;5.90;;;4.30;;
32026;SDS011;18543;50.848;4.596;2023-02-07T12:09:33;6.88;;;4.40;;
32026;SDS011;18543;50.848;4.596;2023-02-07T12:12:45;8.48;;;4.47;;
32026;SDS011;18543;50.848;4.596;2023-02-07T12:15:31;6.05;;;4.50;;
32026;SDS011;18543;50.848;4.596;2023-02-07T12:18:16;6.97;;;4.47;;
32026;SDS011;18543;50.848;4.596;2023-02-07T12:23:31;7.25;;;4.65;;
32026;SDS011;18543;50.848;4.596;2023-02-07T12:32:01;7.82;;;4.47;;
32026;SDS011;18543;50.848;4.596;2023-02-07T12:37:51;6.07;;;4.32;;
32026;SDS011;18543;50.848;4.596;2023-02-07T12:40:42;6.03;;;4.00;;
32026;SDS011;18543;50.848;4.596;2023-02-07T12:43:18;6.85;;;4.35;;
32026;SDS011;18543;50.848;4.596;2023-02-07T12:45:55;6.20;;;3.83;;
32026;SDS011;18543;50.848;4.596;2023-02-07T12:56:58;8.68;;;3.60;;
32026;SDS011;18543;50.848;4.596;2023-02-07T13:16:36;4.78;;;2.95;;
32026;SDS011;18543;50.848;4.596;2023-02-07T13:24:31;4.40;;;3.05;;
32026;SDS011;18543;50.848;4.596;2023-02-07T13:27:01;7.07;;;3.05;;
32026;SDS011;18543;50.848;4.596;2023-02-07T13:29:33;5.22;;;2.90;;
32026;SDS011;18543;50.848;4.596;2023-02-07T13:32:01;5.90;;;3.00;;
32026;SDS011;18543;50.848;4.596;2023-02-07T13:34:43;4.95;;;3.05;;
32026;SDS011;18543;50.848;4.596;2023-02-07T13:37:18;3.72;;;2.90;;
32026;SDS011;18543;50.848;4.596;2023-02-07T13:42:26;5.43;;;2.88;;
32026;SDS011;18543;50.848;4.596;2023-02-07T13:52:54;3.58;;;2.92;;
32026;SDS011;18543;50.848;4.596;2023-02-07T13:55:33;3.22;;;2.50;;
32026;SDS011;18543;50.848;4.596;2023-02-07T13:58:49;3.40;;;2.75;;
32026;SDS011;18543;50.848;4.596;2023-02-07T14:01:20;3.53;;;2.50;;
32026;SDS011;18543;50.848;4.596;2023-02-07T14:06:39;4.60;;;2.60;;
32026;SDS011;18543;50.848;4.596;2023-02-07T14:11:41;3.25;;;2.38;;
32026;SDS011;18543;50.848;4.596;2023-02-07T14:16:49;2.45;;;2.20;;
32026;SDS011;18543;50.848;4.596;2023-02-07T14:27:34;4.32;;;2.70;;
32026;SDS011;18543;50.848;4.596;2023-02-07T14:33:03;3.22;;;2.58;;
32026;SDS011;18543;50.848;4.596;2023-02-07T14:35:43;3.90;;;2.40;;
32026;SDS011;18543;50.848;4.596;2023-02-07T14:41:10;2.58;;;2.30;;
32026;SDS011;18543;50.848;4.596;2023-02-07T14:43:40;5.90;;;2.60;;
32026;SDS011;18543;50.848;4.596;2023-02-07T14:46:35;5.78;;;2.50;;
32026;SDS011;18543;50.848;4.596;2023-02-07T14:49:05;7.22;;;2.50;;
32026;SDS011;18543;50.848;4.596;2023-02-07T14:51:40;6.93;;;2.50;;
32026;SDS011;18543;50.848;4.596;2023-02-07T14:54:25;4.28;;;2.20;;
32026;SDS011;18543;50.848;4.596;2023-02-07T14:59:42;5.03;;;2.60;;
32026;SDS011;18543;50.848;4.596;2023-02-07T15:02:34;8.63;;;2.50;;
32026;SDS011;18543;50.848;4.596;2023-02-07T15:07:39;7.88;;;2.58;;
32026;SDS011;18543;50.848;4.596;2023-02-07T15:10:12;6.05;;;3.10;;
32026;SDS011;18543;50.848;4.596;2023-02-07T15:12:41;7.20;;;2.63;;
32026;SDS011;18543;50.848;4.596;2023-02-07T15:17:42;5.53;;;2.42;;
32026;SDS011;18543;50.848;4.596;2023-02-07T15:20:13;9.70;;;2.22;;
32026;SDS011;18543;50.848;4.596;2023-02-07T15:22:48;6.93;;;2.50;;
32026;SDS011;18543;50.848;4.596;2023-02-07T15:25:18;9.40;;;2.40;;
32026;SDS011;18543;50.848;4.596;2023-02-07T15:27:58;10.20;;;2.70;;
32026;SDS011;18543;50.848;4.596;2023-02-07T15:30:28;5.80;;;2.47;;
32026;SDS011;18543;50.848;4.596;2023-02-07T15:32:55;6.22;;;2.35;;
32026;SDS011;18543;50.848;4.596;2023-02-07T15:37:52;10.05;;;2.55;;
32026;SDS011;18543;50.848;4.596;2023-02-07T15:40:20;6.82;;;2.35;;
32026;SDS011;18543;50.848;4.596;2023-02-07T15:42:53;7.72;;;2.80;;
32026;SDS011;18543;50.848;4.596;2023-02-07T15:45:24;5.88;;;2.33;;
32026;SDS011;18543;50.848;4.596;2023-02-07T15:48:05;6.53;;;2.30;;
32026;SDS011;18543;50.848;4.596;2023-02-07T15:50:40;16.92;;;2.90;;
32026;SDS011;18543;50.848;4.596;2023-02-07T15:53:07;11.83;;;2.50;;
32026;SDS011;18543;50.848;4.596;2023-02-07T15:55:43;14.13;;;2.67;;
32026;SDS011;18543;50.848;4.596;2023-02-07T15:58:30;16.50;;;3.03;;
32026;SDS011;18543;50.848;4.596;2023-02-07T16:01:05;10.80;;;2.58;;
32026;SDS011;18543;50.848;4.596;2023-02-07T16:03:41;18.58;;;3.15;;
32026;SDS011;18543;50.848;4.596;2023-02-07T16:06:23;9.85;;;2.90;;
32026;SDS011;18543;50.848;4.596;2023-02-07T16:08:53;16.88;;;3.20;;
32026;SDS011;18543;50.848;4.596;2023-02-07T16:16:35;7.57;;;2.53;;
32026;SDS011;18543;50.848;4.596;2023-02-07T16:19:28;12.10;;;2.58;;
32026;SDS011;18543;50.848;4.596;2023-02-07T16:24:37;10.20;;;2.78;;
32026;SDS011;18543;50.848;4.596;2023-02-07T16:27:06;8.27;;;2.58;;
32026;SDS011;18543;50.848;4.596;2023-02-07T16:29:39;13.30;;;2.55;;
32026;SDS011;18543;50.848;4.596;2023-02-07T16:32:10;7.00;;;2.28;;
32026;SDS011;18543;50.848;4.596;2023-02-07T16:34:38;8.48;;;2.30;;
32026;SDS011;18543;50.848;4.596;2023-02-07T16:37:24;7.43;;;2.38;;
32026;SDS011;18543;50.848;4.596;2023-02-07T16:39:52;8.02;;;2.20;;
32026;SDS011;18543;50.848;4.596;2023-02-07T16:42:19;9.45;;;2.03;;
32026;SDS011;18543;50.848;4.596;2023-02-07T16:44:46;7.93;;;2.28;;
32026;SDS011;18543;50.848;4.596;2023-02-07T16:47:13;6.30;;;2.40;;
32026;SDS011;18543;50.848;4.596;2023-02-07T16:49:41;6.50;;;2.30;;
32026;SDS011;18543;50.848;4.596;2023-02-07T16:52:10;7.47;;;2.35;;
32026;SDS011;18543;50.848;4.596;2023-02-07T16:54:39;8.65;;;2.67;;
32026;SDS011;18543;50.848;4.596;2023-02-07T16:57:08;9.60;;;2.72;;
32026;SDS011;18543;50.848;4.596;2023-02-07T16:59:36;7.30;;;2.20;;
32026;SDS011;18543;50.848;4.596;2023-02-07T17:02:07;10.95;;;2.50;;
32026;SDS011;18543;50.848;4.596;2023-02-07T17:04:40;9.65;;;2.33;;
32026;SDS011;18543;50.848;4.596;2023-02-07T17:07:10;7.65;;;2.60;;
32026;SDS011;18543;50.848;4.596;2023-02-07T17:09:40;10.35;;;4.35;;
32026;SDS011;18543;50.848;4.596;2023-02-07T17:12:08;29.45;;;10.57;;
32026;SDS011;18543;50.848;4.596;2023-02-07T17:14:35;25.17;;;9.82;;
32026;SDS011;18543;50.848;4.596;2023-02-07T17:17:04;22.92;;;11.55;;
32026;SDS011;18543;50.848;4.596;2023-02-07T17:19:31;25.13;;;10.93;;
32026;SDS011;18543;50.848;4.596;2023-02-07T17:21:57;22.50;;;10.60;;
32026;SDS011;18543;50.848;4.596;2023-02-07T17:24:27;21.65;;;10.02;;
32026;SDS011;18543;50.848;4.596;2023-02-07T17:26:54;22.70;;;9.90;;
32026;SDS011;18543;50.848;4.596;2023-02-07T17:29:21;23.20;;;9.20;;
32026;SDS011;18543;50.848;4.596;2023-02-07T17:31:48;18.43;;;9.70;;
32026;SDS011;18543;50.848;4.596;2023-02-07T17:34:15;16.42;;;8.93;;
32026;SDS011;18543;50.848;4.596;2023-02-07T17:36:44;20.85;;;9.38;;
32026;SDS011;18543;50.848;4.596;2023-02-07T17:39:14;17.40;;;9.23;;
32026;SDS011;18543;50.848;4.596;2023-02-07T17:41:43;20.13;;;8.48;;
32026;SDS011;18543;50.848;4.596;2023-02-07T17:44:10;17.55;;;8.95;;
32026;SDS011;18543;50.848;4.596;2023-02-07T17:46:37;22.40;;;8.90;;
32026;SDS011;18543;50.848;4.596;2023-02-07T17:49:05;20.42;;;8.65;;
32026;SDS011;18543;50.848;4.596;2023-02-07T17:51:38;20.77;;;8.93;;
32026;SDS011;18543;50.848;4.596;2023-02-07T17:54:05;18.98;;;8.55;;
32026;SDS011;18543;50.848;4.596;2023-02-07T17:56:32;20.33;;;8.40;;
32026;SDS011;18543;50.848;4.596;2023-02-07T17:59:00;17.73;;;8.98;;
32026;SDS011;18543;50.848;4.596;2023-02-07T18:01:30;17.25;;;7.97;;
32026;SDS011;18543;50.848;4.596;2023-02-07T18:03:57;15.07;;;7.88;;
32026;SDS011;18543;50.848;4.596;2023-02-07T18:06:25;19.53;;;8.47;;
32026;SDS011;18543;50.848;4.596;2023-02-07T18:08:54;18.65;;;8.38;;
32026;SDS011;18543;50.848;4.596;2023-02-07T18:11:24;18.83;;;8.52;;
32026;SDS011;18543;50.848;4.596;2023-02-07T18:13:52;15.43;;;7.50;;
32026;SDS011;18543;50.848;4.596;2023-02-07T18:16:22;19.25;;;7.43;;
32026;SDS011;18543;50.848;4.596;2023-02-07T18:18:50;16.98;;;8.02;;
32026;SDS011;18543;50.848;4.596;2023-02-07T18:21:19;16.85;;;7.20;;
32026;SDS011;18543;50.848;4.596;2023-02-07T18:23:46;16.70;;;7.35;;
32026;SDS011;18543;50.848;4.596;2023-02-07T18:26:14;17.47;;;7.73;;
32026;SDS011;18543;50.848;4.596;2023-02-07T18:28:44;16.88;;;7.75;;
32026;SDS011;18543;50.848;4.596;2023-02-07T18:31:13;15.60;;;7.10;;
32026;SDS011;18543;50.848;4.596;2023-02-07T18:33:42;16.42;;;7.13;;